Time;durP1;ratioP1;P1;durP2;ratioP2;P2;SDS_P1;SDS_P2;PMS_P1;PMS_P2;Temp;Humidity;BMP_temperature;BMP_pressure;BME280_temperature;BME280_humidity;BME280_pressure;Samples;Min_cycle;Max_cycle;Signal;HPM_P1;HPM_P2
2022/04/15 00:00:38;;;;;;;26.45;15.25;;;8.90;99.90;;;;;;5052869;28;20403;-69
2022/04/15 00:03:05;;;;;;;25.88;15.85;;;9.00;99.90;;;;;;5052987;28;20044;-69
2022/04/15 00:05:36;;;;;;;29.23;16.20;;;9.10;99.90;;;;;;5052855;28;20025;-70
2022/04/15 00:08:04;;;;;;;25.13;15.45;;;9.10;99.90;;;;;;5051412;28;20490;-70
2022/04/15 00:10:30;;;;;;;28.83;16.55;;;9.10;99.90;;;;;;5052890;28;20479;-70
2022/04/15 00:12:56;;;;;;;24.92;15.65;;;9.20;99.90;;;;;;5052709;28;20028;-70
2022/04/15 00:15:22;;;;;;;26.27;15.18;;;9.10;99.90;;;;;;5052821;28;20017;-70
2022/04/15 00:17:47;;;;;;;29.67;16.65;;;9.10;99.90;;;;;;5052570;28;20369;-70
2022/04/15 00:20:13;;;;;;;25.20;14.45;;;9.00;99.90;;;;;;5052602;28;20384;-70
2022/04/15 00:22:39;;;;;;;23.58;14.95;;;9.00;99.90;;;;;;5052814;28;20021;-68
2022/04/15 00:25:06;;;;;;;30.27;17.38;;;9.00;99.90;;;;;;5052414;28;20029;-68
2022/04/15 00:27:31;;;;;;;28.13;16.63;;;9.00;99.90;;;;;;5052450;28;20453;-67
2022/04/15 00:29:57;;;;;;;29.10;17.58;;;9.00;99.90;;;;;;5052504;28;20096;-70
2022/04/15 00:32:22;;;;;;;25.98;15.43;;;9.00;99.90;;;;;;5051223;28;20021;-70
2022/04/15 00:34:48;;;;;;;31.98;16.98;;;8.80;99.90;;;;;;5055859;28;20116;-70
2022/04/15 00:37:14;;;;;;;27.92;16.42;;;8.80;99.90;;;;;;5056246;28;20124;-70
2022/04/15 00:39:45;;;;;;;26.50;16.25;;;8.70;99.90;;;;;;5056292;28;20021;-70
2022/04/15 00:42:10;;;;;;;26.67;17.23;;;8.70;99.90;;;;;;5056223;28;20479;-69
2022/04/15 00:44:37;;;;;;;28.35;18.05;;;8.70;99.90;;;;;;5056167;28;20033;-69
2022/04/15 00:47:09;;;;;;;30.65;18.42;;;8.60;99.90;;;;;;5055825;28;20368;-69
2022/04/15 00:49:35;;;;;;;30.30;17.27;;;8.50;99.90;;;;;;5055952;28;20054;-69
2022/04/15 00:52:02;;;;;;;31.02;17.98;;;8.50;99.90;;;;;;5055761;28;20033;-69
2022/04/15 00:54:29;;;;;;;27.83;18.33;;;8.50;99.90;;;;;;5054561;28;20029;-69
2022/04/15 00:56:59;;;;;;;35.03;20.02;;;8.50;99.90;;;;;;5055983;28;20037;-69
2022/04/15 00:59:26;;;;;;;30.83;18.63;;;8.50;99.90;;;;;;5055616;28;20029;-69
2022/04/15 01:01:52;;;;;;;31.45;18.27;;;8.40;99.90;;;;;;5055608;28;20064;-69
2022/04/15 01:04:18;;;;;;;31.60;18.27;;;8.30;99.90;;;;;;5055600;28;20114;-69
2022/04/15 01:06:46;;;;;;;30.30;17.63;;;8.20;99.90;;;;;;5055678;28;20025;-70
2022/04/15 01:09:12;;;;;;;29.77;17.67;;;8.10;99.90;;;;;;5054193;28;20028;-70
2022/04/15 01:11:42;;;;;;;30.85;18.40;;;8.00;99.90;;;;;;5054096;28;20112;-69
2022/04/15 01:14:09;;;;;;;33.90;19.13;;;8.00;99.90;;;;;;5055373;28;20032;-69
2022/04/15 01:16:35;;;;;;;30.10;18.27;;;8.00;99.90;;;;;;5054236;28;20539;-70
2022/04/15 01:19:00;;;;;;;27.17;18.13;;;7.90;99.90;;;;;;5055290;28;20115;-69
2022/04/15 01:21:31;;;;;;;33.35;19.90;;;7.80;99.90;;;;;;5054023;28;20035;-69
2022/04/15 01:23:58;;;;;;;27.50;18.35;;;7.80;99.90;;;;;;5055232;28;20052;-69
2022/04/15 01:26:23;;;;;;;30.20;18.67;;;7.70;99.90;;;;;;5054924;28;20410;-69
2022/04/15 01:28:49;;;;;;;28.52;18.27;;;7.70;99.90;;;;;;5054951;28;20025;-69
2022/04/15 01:31:15;;;;;;;31.00;19.83;;;7.70;99.90;;;;;;5055123;28;20021;-69
2022/04/15 01:33:41;;;;;;;32.30;19.17;;;7.70;99.90;;;;;;5055061;28;20017;-69
2022/04/15 01:36:06;;;;;;;32.17;19.65;;;7.60;99.90;;;;;;5055084;28;20078;-69
2022/04/15 01:38:33;;;;;;;33.90;20.50;;;7.60;99.90;;;;;;5053726;28;20047;-69
2022/04/15 01:40:58;;;;;;;35.88;21.27;;;7.60;99.90;;;;;;5054855;28;20036;-69
2022/04/15 01:43:24;;;;;;;33.25;20.17;;;7.50;99.90;;;;;;5054865;28;20438;-69
2022/04/15 01:45:49;;;;;;;40.35;21.33;;;7.50;99.90;;;;;;5054703;28;20025;-69
2022/04/15 01:48:15;;;;;;;37.00;22.27;;;7.40;99.90;;;;;;5054679;28;20025;-70
2022/04/15 01:50:40;;;;;;;36.33;21.27;;;7.40;99.90;;;;;;5054763;28;20369;-69
2022/04/15 01:53:06;;;;;;;33.78;20.63;;;7.40;99.90;;;;;;5054918;28;20350;-69
2022/04/15 01:55:31;;;;;;;31.00;19.63;;;7.30;99.90;;;;;;5053376;28;20025;-69
2022/04/15 01:57:57;;;;;;;33.35;19.58;;;7.30;99.90;;;;;;5054513;28;20025;-69
2022/04/15 02:00:23;;;;;;;31.15;19.45;;;7.30;99.90;;;;;;5054492;28;20020;-69
2022/04/15 02:02:48;;;;;;;34.72;19.52;;;7.20;99.90;;;;;;5054645;28;20387;-69
2022/04/15 02:05:14;;;;;;;31.50;19.92;;;7.10;99.90;;;;;;5054655;28;20025;-69
2022/04/15 02:07:40;;;;;;;31.83;19.25;;;7.10;99.90;;;;;;5054376;28;20021;-69
2022/04/15 02:10:06;;;;;;;42.53;22.02;;;7.00;99.90;;;;;;5054599;28;20040;-69
2022/04/15 02:12:32;;;;;;;36.47;19.60;;;7.00;99.90;;;;;;5052982;28;20025;-69
2022/04/15 02:14:57;;;;;;;31.50;19.98;;;7.00;99.90;;;;;;5054241;28;20415;-69
2022/04/15 02:17:23;;;;;;;33.45;19.13;;;7.00;99.90;;;;;;5052974;28;20445;-69
2022/04/15 02:19:50;;;;;;;30.48;18.88;;;7.00;99.90;;;;;;5054121;28;20021;-70
2022/04/15 02:22:16;;;;;;;32.25;19.70;;;7.00;99.90;;;;;;5054355;28;20025;-70
2022/04/15 02:24:41;;;;;;;36.05;19.13;;;7.00;99.90;;;;;;5054046;28;20074;-69
2022/04/15 02:27:07;;;;;;;33.50;20.40;;;6.90;99.90;;;;;;5053781;28;20372;-69
2022/04/15 02:29:32;;;;;;;39.25;22.38;;;6.90;99.90;;;;;;5053892;28;20035;-69
2022/04/15 02:31:58;;;;;;;38.40;19.85;;;6.90;99.90;;;;;;5052647;28;20041;-69
2022/04/15 02:34:23;;;;;;;34.90;20.63;;;6.90;99.90;;;;;;5053886;28;20527;-69
2022/04/15 02:36:49;;;;;;;33.00;19.50;;;6.60;99.90;;;;;;5053796;28;20024;-69
2022/04/15 02:39:16;;;;;;;28.83;17.30;;;;;;;;;;5053876;28;20025;-68
2022/04/15 02:41:42;;;;;;;32.35;18.85;;;6.90;99.90;;;;;;5053742;28;20029;-68
2022/04/15 02:44:08;;;;;;;34.80;19.02;;;6.80;99.90;;;;;;5053696;28;20025;-68
2022/04/15 02:46:34;;;;;;;32.88;18.92;;;6.80;99.90;;;;;;5053482;28;20024;-68
2022/04/15 02:49:00;;;;;;;32.80;18.13;;;6.70;99.90;;;;;;5053595;28;20147;-68
2022/04/15 02:51:26;;;;;;;29.38;18.30;;;6.70;99.90;;;;;;5052346;28;20535;-68
2022/04/15 02:53:51;;;;;;;30.83;18.85;;;6.60;99.90;;;;;;5053562;28;20061;-68
2022/04/15 02:56:17;;;;;;;32.03;19.33;;;6.60;99.90;;;;;;5053115;28;20033;-69
2022/04/15 02:58:42;;;;;;;36.85;20.60;;;6.50;99.90;;;;;;5053683;28;20036;-68
2022/04/15 03:01:08;;;;;;;41.65;21.70;;;6.50;99.90;;;;;;5053411;28;20078;-68
2022/04/15 03:03:34;;;;;;;40.33;21.80;;;6.50;99.90;;;;;;5052477;28;20387;-68
2022/04/15 03:06:02;;;;;;;37.95;22.33;;;6.50;99.90;;;;;;5053554;28;20102;-69
2022/04/15 03:08:28;;;;;;;41.08;22.95;;;6.40;99.90;;;;;;5053567;28;20060;-68
2022/04/15 03:10:54;;;;;;;39.20;22.65;;;6.50;99.90;;;;;;5053278;28;20029;-69
2022/04/15 03:13:19;;;;;;;39.05;22.15;;;6.50;99.90;;;;;;5053482;28;20024;-68
2022/04/15 03:15:45;;;;;;;41.78;22.65;;;6.70;99.90;;;;;;5053283;28;20387;-68
2022/04/15 03:18:10;;;;;;;41.50;25.08;;;6.80;99.90;;;;;;5053301;28;20036;-69
2022/04/15 03:20:36;;;;;;;53.38;27.40;;;6.90;99.90;;;;;;5051978;28;20106;-69
2022/04/15 03:23:01;;;;;;;48.00;27.40;;;7.10;99.90;;;;;;5053125;28;20041;-69
2022/04/15 03:25:27;;;;;;;52.92;28.77;;;7.30;99.90;;;;;;5052801;28;20055;-69
2022/04/15 03:27:53;;;;;;;59.50;30.90;;;7.50;99.90;;;;;;5053100;28;20053;-69
2022/04/15 03:30:18;;;;;;;61.17;30.45;;;7.50;99.90;;;;;;5053265;28;20031;-70
2022/04/15 03:32:46;;;;;;;53.92;29.17;;;7.60;99.90;;;;;;5052993;28;20082;-70
2022/04/15 03:35:11;;;;;;;66.05;30.77;;;7.60;99.90;;;;;;5051847;28;20120;-69
2022/04/15 03:37:37;;;;;;;59.92;30.00;;;7.70;99.90;;;;;;5053223;28;20104;-69
2022/04/15 03:40:03;;;;;;;65.63;30.40;;;8.00;99.90;;;;;;5051778;28;20029;-69
2022/04/15 03:42:28;;;;;;;60.47;30.27;;;7.90;99.90;;;;;;5053172;28;20113;-69
2022/04/15 03:44:54;;;;;;;55.92;27.65;;;7.90;99.90;;;;;;5053135;28;20112;-68
2022/04/15 03:47:20;;;;;;;50.17;27.77;;;;;;;;;;5053166;28;20108;-68
2022/04/15 03:49:47;;;;;;;53.30;28.77;;;8.10;99.90;;;;;;5052920;28;20079;-69
2022/04/15 03:52:13;;;;;;;49.45;28.20;;;8.10;99.90;;;;;;5053120;28;20104;-69
2022/04/15 03:54:38;;;;;;;53.50;28.20;;;8.10;99.90;;;;;;5052841;28;20063;-69
2022/04/15 03:57:04;;;;;;;52.80;28.23;;;8.10;99.90;;;;;;5052775;28;20032;-69
2022/04/15 03:59:29;;;;;;;51.55;26.85;;;8.10;99.90;;;;;;5053030;28;20021;-69
2022/04/15 04:01:55;;;;;;;49.90;27.40;;;8.10;99.90;;;;;;5052997;28;20025;-69
2022/04/15 04:04:20;;;;;;;51.03;29.17;;;8.10;99.90;;;;;;5052718;28;20057;-69
2022/04/15 04:06:46;;;;;;;49.42;27.20;;;8.10;99.90;;;;;;5052716;28;20064;-69
2022/04/15 04:09:11;;;;;;;49.78;26.90;;;8.10;99.90;;;;;;5055370;28;20024;-69
2022/04/15 04:11:37;;;;;;;51.35;27.30;;;8.10;99.90;;;;;;5055687;28;20051;-69
2022/04/15 04:14:02;;;;;;;51.42;27.90;;;8.20;99.90;;;;;;5056539;28;20027;-69
2022/04/15 04:16:28;;;;;;;47.42;26.17;;;8.10;99.90;;;;;;5056518;28;20083;-69
2022/04/15 04:18:53;;;;;;;47.78;25.08;;;8.10;99.90;;;;;;5056526;28;20458;-69
2022/04/15 04:21:20;;;;;;;41.58;23.52;;;8.10;99.90;;;;;;5056691;28;20391;-69
2022/04/15 04:23:46;;;;;;;40.90;23.15;;;8.00;99.90;;;;;;5056537;28;20029;-69
2022/04/15 04:26:11;;;;;;;41.58;23.27;;;8.00;99.90;;;;;;5056116;28;20049;-69
2022/04/15 04:28:37;;;;;;;40.33;21.13;;;8.00;99.90;;;;;;5056316;28;20502;-69
2022/04/15 04:31:02;;;;;;;36.92;19.55;;;8.00;99.90;;;;;;5056123;28;20060;-69
2022/04/15 04:33:28;;;;;;;35.28;18.98;;;8.00;99.90;;;;;;5056447;28;20101;-69
2022/04/15 04:35:53;;;;;;;30.50;17.77;;;8.00;99.90;;;;;;5056150;28;20538;-69
2022/04/15 04:38:19;;;;;;;30.00;16.85;;;8.00;99.90;;;;;;5056341;28;20021;-69
2022/04/15 04:40:46;;;;;;;21.50;14.48;;;7.90;99.90;;;;;;5056280;28;20035;-69
2022/04/15 04:43:12;;;;;;;24.25;15.13;;;7.80;99.90;;;;;;5056125;28;20025;-69
2022/04/15 04:45:38;;;;;;;20.50;14.27;;;7.90;99.90;;;;;;5056168;28;20529;-69
2022/04/15 04:48:05;;;;;;;20.77;13.52;;;7.90;99.90;;;;;;5054670;28;20029;-69
2022/04/15 04:50:31;;;;;;;22.05;14.77;;;7.90;99.90;;;;;;5055832;28;20032;-69
2022/04/15 04:52:58;;;;;;;26.05;15.07;;;7.90;99.90;;;;;;5055810;28;20074;-69
2022/04/15 04:55:23;;;;;;;23.88;14.88;;;7.80;99.90;;;;;;5055948;28;20021;-69
2022/04/15 04:57:49;;;;;;;23.30;14.45;;;7.90;99.90;;;;;;5055982;28;20532;-69
2022/04/15 05:00:16;;;;;;;24.60;15.25;;;7.80;99.90;;;;;;5055904;28;20036;-69
2022/04/15 05:02:44;;;;;;;28.48;14.75;;;7.90;99.90;;;;;;5054343;28;20036;-69
2022/04/15 05:05:10;;;;;;;25.40;14.45;;;7.90;99.90;;;;;;5054449;28;20613;-69
2022/04/15 05:07:36;;;;;;;23.77;14.65;;;8.00;99.90;;;;;;5055696;28;20036;-69
2022/04/15 05:10:04;;;;;;;20.02;13.00;;;8.00;99.90;;;;;;5055404;28;20467;-69
2022/04/15 05:12:29;;;;;;;24.38;13.90;;;7.90;99.90;;;;;;5055427;28;20108;-69
2022/04/15 05:14:55;;;;;;;23.83;14.02;;;7.90;99.90;;;;;;5055423;28;20052;-69
2022/04/15 05:17:20;;;;;;;23.17;13.85;;;8.00;99.90;;;;;;5055300;28;20025;-69
2022/04/15 05:19:46;;;;;;;22.52;14.15;;;8.00;99.90;;;;;;5054975;28;20111;-69
2022/04/15 05:22:12;;;;;;;21.10;13.55;;;8.00;99.90;;;;;;5055224;28;20033;-69
2022/04/15 05:24:38;;;;;;;22.10;13.50;;;8.00;99.90;;;;;;5055267;28;20111;-69
2022/04/15 05:27:05;;;;;;;22.13;13.93;;;8.00;99.90;;;;;;5053759;28;20099;-69
2022/04/15 05:29:30;;;;;;;25.70;14.35;;;8.10;99.90;;;;;;5055352;28;20387;-69
2022/04/15 05:31:56;;;;;;;22.90;13.35;;;8.00;99.90;;;;;;5055072;28;20025;-69
2022/04/15 05:34:21;;;;;;;22.00;13.02;;;8.00;99.90;;;;;;5055042;28;20029;-69
2022/04/15 05:36:47;;;;;;;22.08;13.25;;;8.00;99.90;;;;;;5055202;28;20426;-69
2022/04/15 05:39:12;;;;;;;21.90;12.50;;;8.10;99.90;;;;;;5054992;28;20445;-69
2022/04/15 05:41:38;;;;;;;21.17;12.75;;;8.10;99.90;;;;;;5055029;28;20082;-69
2022/04/15 05:44:04;;;;;;;21.27;12.70;;;8.10;99.90;;;;;;5054823;28;20024;-69
2022/04/15 05:46:30;;;;;;;20.20;13.02;;;8.20;99.90;;;;;;5054720;28;20025;-69
2022/04/15 05:48:56;;;;;;;24.63;15.15;;;8.20;99.90;;;;;;5054767;28;20025;-69
2022/04/15 05:51:22;;;;;;;21.77;14.25;;;8.20;99.90;;;;;;5054927;28;20033;-69
2022/04/15 05:53:47;;;;;;;22.77;14.45;;;8.30;99.90;;;;;;5054896;28;20498;-69
2022/04/15 05:56:13;;;;;;;25.85;15.25;;;8.30;99.90;;;;;;5054691;28;20479;-69
2022/04/15 05:58:40;;;;;;;23.80;15.45;;;8.40;99.90;;;;;;5053652;28;20025;-69
2022/04/15 06:01:09;;;;;;;23.33;15.70;;;8.40;99.90;;;;;;5054486;28;20363;-69
2022/04/15 06:03:35;;;;;;;23.98;15.32;;;8.60;99.90;;;;;;5054799;28;20025;-69
2022/04/15 06:06:01;;;;;;;26.33;15.50;;;8.60;99.90;;;;;;5054598;28;20146;-69
2022/04/15 06:08:27;;;;;;;25.90;15.73;;;8.60;99.90;;;;;;5054403;28;20057;-69
2022/04/15 06:10:53;;;;;;;26.48;14.60;;;8.70;99.90;;;;;;5054642;28;20361;-69
2022/04/15 06:13:22;;;;;;;23.92;15.27;;;8.70;99.90;;;;;;5053069;28;20059;-69
2022/04/15 06:15:53;;;;;;;23.80;15.40;;;8.80;99.90;;;;;;5054536;28;20390;-69
2022/04/15 06:18:20;;;;;;;26.73;14.43;;;8.80;99.90;;;;;;5054434;28;20055;-69
2022/04/15 06:20:47;;;;;;;23.33;15.15;;;8.90;99.90;;;;;;5054193;28;20025;-69
2022/04/15 06:23:13;;;;;;;22.17;14.52;;;8.90;99.90;;;;;;5054367;28;20135;-69
2022/04/15 06:25:39;;;;;;;20.20;13.15;;;9.00;99.90;;;;;;5053941;28;20065;-68
2022/04/15 06:28:05;;;;;;;25.63;14.30;;;8.90;99.90;;;;;;5053907;28;20115;-68
2022/04/15 06:30:30;;;;;;;23.77;14.55;;;9.00;99.90;;;;;;5053212;28;20490;-68
2022/04/15 06:32:56;;;;;;;27.10;15.70;;;8.90;99.90;;;;;;5053587;28;20143;-68
2022/04/15 06:35:22;;;;;;;22.90;14.45;;;9.00;99.90;;;;;;5053877;28;20024;-69
2022/04/15 06:37:47;;;;;;;23.60;14.55;;;9.00;99.90;;;;;;5054044;28;20036;-69
2022/04/15 06:40:13;;;;;;;19.15;12.35;;;9.00;99.90;;;;;;5053755;28;20103;-69
2022/04/15 06:42:38;;;;;;;20.52;12.73;;;9.10;99.90;;;;;;5053985;28;20112;-69
2022/04/15 06:45:04;;;;;;;21.48;12.38;;;9.10;99.90;;;;;;5053907;28;20113;-69
2022/04/15 06:47:30;;;;;;;19.33;12.30;;;9.10;99.90;;;;;;5053475;28;20025;-69
2022/04/15 06:49:56;;;;;;;20.45;13.18;;;9.10;99.90;;;;;;5053626;28;20438;-69
2022/04/15 06:52:21;;;;;;;20.15;12.15;;;9.10;99.90;;;;;;5053560;28;20060;-70
2022/04/15 06:54:47;;;;;;;21.17;12.88;;;9.10;99.90;;;;;;5053638;28;20385;-70
2022/04/15 06:57:13;;;;;;;22.52;13.07;;;9.10;99.90;;;;;;5053728;28;20021;-70
2022/04/15 06:59:39;;;;;;;21.95;13.02;;;9.10;99.90;;;;;;5053412;28;20033;-69
2022/04/15 07:02:05;;;;;;;20.52;13.40;;;9.10;99.90;;;;;;5053694;28;20025;-70
2022/04/15 07:04:40;;;;;;;21.92;12.60;;;9.10;99.90;;;;;;5053325;28;20021;-70
2022/04/15 07:07:05;;;;;;;19.73;12.32;;;9.00;99.90;;;;;;5052012;28;20025;-69
2022/04/15 07:09:31;;;;;;;21.00;13.15;;;9.00;99.90;;;;;;5053241;28;20104;-69
2022/04/15 07:11:57;;;;;;;23.45;13.48;;;9.00;99.90;;;;;;5053271;28;20017;-70
2022/04/15 07:14:23;;;;;;;23.55;12.65;;;8.90;99.90;;;;;;5053229;28;20467;-70
2022/04/15 07:16:49;;;;;;;18.40;12.18;;;9.00;99.90;;;;;;5052024;28;20028;-70
2022/04/15 07:19:14;;;;;;;19.88;11.77;;;8.90;99.90;;;;;;5053258;28;20037;-69
2022/04/15 07:21:42;;;;;;;20.67;12.10;;;8.90;99.90;;;;;;5051847;28;20120;-69
2022/04/15 07:24:08;;;;;;;21.15;13.02;;;8.90;99.90;;;;;;5053392;28;20394;-69
2022/04/15 07:26:33;;;;;;;20.85;12.68;;;8.90;99.90;;;;;;5052804;28;20120;-70
2022/04/15 07:28:59;;;;;;;22.33;12.63;;;8.80;99.90;;;;;;5053074;28;20032;-69
2022/04/15 07:31:25;;;;;;;18.95;11.73;;;8.80;99.90;;;;;;5053066;28;20079;-69
2022/04/15 07:33:51;;;;;;;20.30;12.80;;;8.80;99.90;;;;;;5053026;28;20025;-69
2022/04/15 07:36:53;;;;;;;24.33;13.80;;;8.80;99.90;;;;;;5053042;28;20021;-69
2022/04/15 07:39:06;;;;;;;20.80;13.75;;;8.60;99.90;;;;;;5052821;28;20400;-69
2022/04/15 07:41:36;;;;;;;19.60;11.77;;;8.50;99.90;;;;;;5051781;28;20021;-70
2022/04/15 07:44:03;;;;;;;19.30;13.48;;;8.50;99.90;;;;;;5057183;28;20067;-69
2022/04/15 07:46:29;;;;;;;16.95;12.63;;;8.40;99.90;;;;;;5056917;28;20566;-69
2022/04/15 07:48:54;;;;;;;20.92;12.93;;;8.50;99.90;;;;;;5055758;28;20062;-69
2022/04/15 07:51:20;;;;;;;18.38;12.05;;;8.60;99.90;;;;;;5055665;28;20074;-69
2022/04/15 07:53:46;;;;;;;18.80;12.23;;;8.60;99.90;;;;;;5057177;28;20017;-69
2022/04/15 07:56:11;;;;;;;24.83;13.13;;;8.50;99.90;;;;;;5056814;28;20426;-69
2022/04/15 07:58:37;;;;;;;23.30;13.43;;;8.60;99.90;;;;;;5056847;28;20035;-69
2022/04/15 08:01:02;;;;;;;22.58;13.20;;;8.50;99.90;;;;;;5056794;28;20029;-69
2022/04/15 08:03:28;;;;;;;19.15;12.93;;;8.50;99.90;;;;;;5057049;28;20025;-69
2022/04/15 08:05:54;;;;;;;19.88;12.32;;;8.40;99.90;;;;;;5056693;28;20551;-69
2022/04/15 08:08:20;;;;;;;18.27;11.93;;;8.40;99.90;;;;;;5056881;28;20025;-69
2022/04/15 08:10:47;;;;;;;19.02;12.15;;;8.40;99.90;;;;;;5056912;28;20475;-69
2022/04/15 08:13:12;;;;;;;17.88;12.30;;;8.50;99.90;;;;;;5056560;28;20096;-69
2022/04/15 08:15:38;;;;;;;16.98;11.85;;;8.50;99.90;;;;;;5056480;28;20108;-69
2022/04/15 08:18:04;;;;;;;20.58;12.65;;;8.50;99.90;;;;;;5056531;28;20021;-69
2022/04/15 08:20:29;;;;;;;23.38;13.32;;;8.60;99.90;;;;;;5056450;28;20470;-69
2022/04/15 08:22:55;;;;;;;15.52;11.15;;;8.50;99.90;;;;;;5056381;28;20017;-69
2022/04/15 08:25:21;;;;;;;16.38;10.82;;;8.50;99.90;;;;;;5056017;28;20407;-69
2022/04/15 08:27:46;;;;;;;15.27;10.77;;;8.60;99.90;;;;;;5056286;28;20033;-69
2022/04/15 08:30:12;;;;;;;20.08;11.10;;;8.80;99.90;;;;;;5054980;28;20028;-69
2022/04/15 08:32:37;;;;;;;20.88;12.25;;;8.70;99.90;;;;;;5056183;28;20021;-69
2022/04/15 08:35:05;;;;;;;20.15;12.18;;;8.60;99.90;;;;;;5056144;28;20365;-70
2022/04/15 08:37:33;;;;;;;19.13;11.90;;;8.70;99.90;;;;;;5056127;28;20499;-70
2022/04/15 08:39:59;;;;;;;14.68;10.93;;;8.80;99.90;;;;;;5056288;28;20041;-69
2022/04/15 08:42:24;;;;;;;16.95;10.73;;;8.90;99.90;;;;;;5055984;28;20029;-69
2022/04/15 08:44:51;;;;;;;15.68;10.13;;;8.90;99.90;;;;;;5056011;28;20032;-70
2022/04/15 08:47:17;;;;;;;17.50;11.20;;;9.00;99.90;;;;;;5055993;28;20390;-70
2022/04/15 08:49:43;;;;;;;15.52;10.70;;;9.10;99.90;;;;;;5056010;28;20104;-70
2022/04/15 08:52:11;;;;;;;16.52;10.52;;;9.20;99.90;;;;;;5055793;28;20111;-70
2022/04/15 08:54:37;;;;;;;14.85;9.73;;;9.40;99.90;;;;;;5055312;28;20079;-70
2022/04/15 08:57:04;;;;;;;14.40;9.15;;;9.40;99.90;;;;;;5056006;28;20479;-70
2022/04/15 08:59:29;;;;;;;15.80;9.70;;;9.50;99.90;;;;;;5055714;28;20037;-70
2022/04/15 09:01:55;;;;;;;15.15;10.18;;;9.60;99.90;;;;;;5055885;28;20031;-70
2022/04/15 09:04:21;;;;;;;16.00;10.10;;;9.70;99.90;;;;;;5054634;28;20025;-70
2022/04/15 09:06:54;;;;;;;14.45;10.15;;;9.70;99.90;;;;;;5055510;28;20077;-71
2022/04/15 09:09:19;;;;;;;14.20;9.63;;;9.70;99.90;;;;;;5055598;28;20068;-70
2022/04/15 09:11:48;;;;;;;11.50;8.20;;;9.80;99.90;;;;;;5055777;28;20128;-70
2022/04/15 09:14:15;;;;;;;12.05;8.40;;;10.00;99.90;;;;;;5055644;28;20029;-70
2022/04/15 09:16:42;;;;;;;13.32;7.95;;;10.30;99.90;;;;;;5055382;28;20076;-70
2022/04/15 09:19:08;;;;;;;11.68;7.78;;;10.30;99.90;;;;;;5037471;28;20029;-70
2022/04/15 09:21:35;;;;;;;12.10;7.95;;;10.40;99.90;;;;;;5055302;28;20021;-70
2022/04/15 09:24:02;;;;;;;10.45;8.18;;;10.40;99.90;;;;;;5055156;28;20025;-70
2022/04/15 09:26:27;;;;;;;11.27;7.25;;;10.40;99.90;;;;;;5055063;28;20061;-70
2022/04/15 09:28:54;;;;;;;12.10;7.50;;;10.40;99.90;;;;;;5055320;28;20021;-70
2022/04/15 09:31:21;;;;;;;11.30;7.68;;;10.40;99.90;;;;;;5055355;28;20494;-69
2022/04/15 09:34:02;;;;;;;10.15;7.93;;;10.50;99.90;;;;;;5055169;28;20056;-70
2022/04/15 09:36:32;;;;;;;12.43;8.40;;;10.70;99.90;;;;;;5053879;28;20028;-70
2022/04/15 09:39:10;;;;;;;12.73;8.30;;;10.70;99.90;;;;;;5055210;28;20029;-70
2022/04/15 09:41:37;;;;;;;8.68;7.22;;;10.50;99.90;;;;;;5054870;28;20025;-70
2022/04/15 09:44:02;;;;;;;12.70;6.95;;;10.30;99.90;;;;;;5054845;28;20179;-70
2022/04/15 09:46:30;;;;;;;10.75;7.35;;;10.30;99.90;;;;;;5054837;28;20100;-70
2022/04/15 09:49:01;;;;;;;12.27;7.97;;;10.40;99.90;;;;;;5055061;28;20025;-70
2022/04/15 09:51:28;;;;;;;13.43;7.60;;;10.50;99.90;;;;;;5054756;28;20052;-70
2022/04/15 09:53:55;;;;;;;10.77;7.35;;;10.70;99.90;;;;;;5054642;28;20021;-69
2022/04/15 09:56:22;;;;;;;8.98;6.68;;;10.60;99.90;;;;;;5053536;28;20025;-70
2022/04/15 09:58:54;;;;;;;9.48;7.47;;;10.70;99.90;;;;;;5054653;28;20025;-70
2022/04/15 10:01:21;;;;;;;9.90;7.10;;;10.80;99.90;;;;;;5054766;28;20112;-70
2022/04/15 10:03:49;;;;;;;10.75;7.07;;;11.00;99.90;;;;;;5054715;28;20025;-70
2022/04/15 10:06:16;;;;;;;10.45;7.70;;;11.10;99.90;;;;;;5053618;28;20033;-70
2022/04/15 10:08:43;;;;;;;11.40;7.20;;;11.30;99.90;;;;;;5054491;28;20013;-70
2022/04/15 10:11:09;;;;;;;11.10;7.00;;;11.60;99.90;;;;;;5054589;28;20021;-70
2022/04/15 10:13:36;;;;;;;11.75;7.07;;;11.60;99.90;;;;;;5054323;28;20021;-70
2022/04/15 10:16:02;;;;;;;10.80;7.22;;;11.70;99.90;;;;;;5054482;28;20037;-70
2022/04/15 10:18:29;;;;;;;13.13;7.88;;;11.60;99.90;;;;;;5054514;28;20032;-70
2022/04/15 10:20:54;;;;;;;13.82;7.85;;;10.80;99.90;;;;;;5054370;28;20079;-70
2022/04/15 10:23:21;;;;;;;15.25;8.90;;;10.90;99.90;;;;;;5054291;28;20479;-70
2022/04/15 10:25:49;;;;;;;13.20;8.45;;;11.00;99.90;;;;;;5053835;28;20124;-70
2022/04/15 10:28:20;;;;;;;16.95;9.18;;;10.80;99.90;;;;;;5054302;28;20479;-70
2022/04/15 10:31:11;;;;;;;14.85;9.05;;;11.00;99.90;;;;;;5054082;28;20013;-70
2022/04/15 10:33:39;;;;;;;13.75;9.63;;;11.00;99.90;;;;;;5053930;28;20078;-70
2022/04/15 10:36:19;;;;;;;14.57;8.82;;;10.80;99.90;;;;;;5054094;28;20064;-70
2022/04/15 10:44:39;;;;;;;11.60;9.77;;;10.60;99.90;;;;;;5111171;27;20125;-69
2022/04/15 10:47:25;;;;;;;14.43;9.75;;;10.90;99.90;;;;;;5111318;28;20381;-69
2022/04/15 10:49:57;;;;;;;16.40;9.65;;;11.00;99.90;;;;;;5111262;28;20019;-70
2022/04/15 10:52:25;;;;;;;13.73;8.68;;;10.90;99.90;;;;;;5110943;28;20047;-69
2022/04/15 10:54:57;;;;;;;14.60;9.57;;;11.00;99.90;;;;;;5110843;28;20027;-70
2022/04/15 10:57:29;;;;;;;17.02;11.93;;;11.00;99.90;;;;;;5111199;28;20532;-70
2022/04/15 11:02:47;;;;;;;17.27;9.48;;;11.10;99.90;;;;;;5110472;28;20501;-70
2022/04/15 11:05:15;;;;;;;13.73;9.55;;;11.30;99.90;;;;;;5109660;28;20081;-69
2022/04/15 11:07:47;;;;;;;13.25;9.18;;;11.30;99.90;;;;;;5110911;28;20024;-69
2022/04/15 11:10:18;;;;;;;12.95;10.13;;;11.20;99.90;;;;;;5110711;28;20024;-69
2022/04/15 11:12:44;;;;;;;12.73;9.43;;;11.30;99.90;;;;;;5110768;28;20547;-70
2022/04/15 11:15:11;;;;;;;13.10;9.02;;;11.40;99.90;;;;;;5092378;28;20508;-69
2022/04/15 11:17:44;;;;;;;12.20;9.38;;;11.60;99.90;;;;;;5110684;28;20474;-69
2022/04/15 11:20:10;;;;;;;12.73;7.60;;;11.90;99.90;;;;;;5110312;28;20081;-70
2022/04/15 11:22:40;;;;;;;12.07;8.00;;;12.60;99.90;;;;;;5110284;28;20520;-69
2022/04/15 11:25:09;;;;;;;10.32;7.88;;;13.00;99.90;;;;;;5110584;28;20020;-69
2022/04/15 11:27:36;;;;;;;11.02;7.85;;;13.10;99.90;;;;;;5109066;28;20016;-69
2022/04/15 11:30:05;;;;;;;10.20;7.65;;;12.90;99.90;;;;;;5110440;28;20031;-70
2022/04/15 11:32:30;;;;;;;12.77;8.65;;;12.60;99.90;;;;;;5110107;28;20036;-70
2022/04/15 11:34:56;;;;;;;13.50;9.05;;;12.50;99.90;;;;;;5110118;28;20035;-69
2022/04/15 11:37:22;;;;;;;13.52;8.60;;;12.60;99.90;;;;;;5110082;28;20439;-70
2022/04/15 11:39:49;;;;;;;13.27;8.45;;;12.60;99.90;;;;;;5110304;28;20500;-69
2022/04/15 11:42:16;;;;;;;13.65;8.93;;;12.70;99.90;;;;;;5109745;28;20028;-69
2022/04/15 11:44:42;;;;;;;11.63;8.73;;;12.80;99.90;;;;;;5108657;28;20043;-70
2022/04/15 11:47:25;;;;;;;9.88;8.50;;;12.60;99.90;;;;;;5110177;28;20024;-70
2022/04/15 11:49:51;;;;;;;10.90;8.23;;;12.40;99.90;;;;;;5094112;28;20026;-70
2022/04/15 11:52:23;;;;;;;12.73;8.13;;;12.70;99.90;;;;;;5108678;28;20027;-70
2022/04/15 11:54:49;;;;;;;12.38;7.82;;;13.10;99.90;;;;;;5101252;28;20028;-70
2022/04/15 11:57:14;;;;;;;10.10;7.80;;;13.10;99.90;;;;;;5096240;28;20047;-70
2022/04/15 11:59:43;;;;;;;11.50;8.43;;;13.20;99.90;;;;;;5096069;28;20032;-69
2022/04/15 12:02:10;;;;;;;13.98;9.00;;;13.00;99.90;;;;;;5095987;28;20028;-70
2022/04/15 12:04:36;;;;;;;9.20;7.93;;;13.30;99.90;;;;;;5096275;28;20558;-70
2022/04/15 12:07:01;;;;;;;11.20;8.00;;;13.30;99.90;;;;;;5095977;28;20048;-70
2022/04/15 12:09:27;;;;;;;11.50;8.50;;;13.40;99.90;;;;;;5095937;28;20031;-70
2022/04/15 12:11:53;;;;;;;11.30;8.10;;;13.60;99.90;;;;;;5096084;28;20475;-69
2022/04/15 12:14:19;;;;;;;10.63;7.97;;;13.90;99.90;;;;;;5095813;28;20390;-70
2022/04/15 12:16:47;;;;;;;13.98;8.30;;;13.80;99.90;;;;;;5095792;28;20035;-69
2022/04/15 12:19:13;;;;;;;11.20;8.52;;;13.50;99.90;;;;;;5095985;28;20034;-69
2022/04/15 12:21:40;;;;;;;11.23;8.60;;;13.30;99.90;;;;;;5095924;28;20027;-70
2022/04/15 12:24:09;;;;;;;10.27;7.57;;;13.60;99.90;;;;;;5095842;28;20031;-70
2022/04/15 12:26:53;;;;;;;12.38;8.57;;;13.80;99.90;;;;;;5094363;28;20043;-70
2022/04/15 12:29:51;;;;;;;9.88;7.90;;;13.80;99.90;;;;;;5095720;28;20028;-69
2022/04/15 12:32:34;;;;;;;12.93;8.90;;;13.90;99.90;;;;;;5095200;28;20026;-69
2022/04/15 12:35:07;;;;;;;12.07;8.20;;;14.10;99.90;;;;;;5094205;28;20055;-70
2022/04/15 12:37:50;;;;;;;8.95;8.02;;;13.90;99.90;;;;;;5094118;28;20062;-69
2022/04/15 12:42:53;;;;;;;12.15;8.48;;;13.70;99.90;;;;;;5090698;28;20465;-70
2022/04/15 12:45:21;;;;;;;13.48;8.88;;;13.10;99.90;;;;;;5090940;28;20147;-70
2022/04/15 12:48:04;;;;;;;13.13;8.65;;;13.20;99.90;;;;;;5090824;28;20024;-69